sensor_id;sensor_type;location;lat;lon;timestamp;pressure;altitude;pressure_sealevel;temperature;humidity
78373;BME280;67656;52.074;4.758;2023-07-31T00:01:14;101002.50;;;17.89;100.00
78373;BME280;67656;52.074;4.758;2023-07-31T00:06:14;100982.69;;;17.93;100.00
78373;BME280;67656;52.074;4.758;2023-07-31T00:11:15;100993.16;;;17.96;100.00
78373;BME280;67656;52.074;4.758;2023-07-31T00:16:15;100998.47;;;17.81;100.00
78373;BME280;67656;52.074;4.758;2023-07-31T00:21:16;100989.41;;;17.84;100.00
78373;BME280;67656;52.074;4.758;2023-07-31T00:26:16;100993.88;;;17.84;100.00
78373;BME280;67656;52.074;4.758;2023-07-31T00:31:16;100988.19;;;17.90;100.00
78373;BME280;67656;52.074;4.758;2023-07-31T00:36:17;100984.41;;;17.94;100.00
78373;BME280;67656;52.074;4.758;2023-07-31T00:41:17;100983.97;;;17.86;100.00
78373;BME280;67656;52.074;4.758;2023-07-31T00:46:17;100973.75;;;17.94;100.00
78373;BME280;67656;52.074;4.758;2023-07-31T00:51:18;100979.16;;;17.92;100.00
78373;BME280;67656;52.074;4.758;2023-07-31T00:56:18;100975.13;;;17.69;100.00
78373;BME280;67656;52.074;4.758;2023-07-31T01:01:19;100974.19;;;17.70;100.00
78373;BME280;67656;52.074;4.758;2023-07-31T01:06:47;100967.28;;;17.98;100.00
78373;BME280;67656;52.074;4.758;2023-07-31T01:12:01;100970.81;;;17.83;100.00
78373;BME280;67656;52.074;4.758;2023-07-31T01:17:02;100970.63;;;17.70;100.00
78373;BME280;67656;52.074;4.758;2023-07-31T01:27:14;100979.16;;;17.76;100.00
78373;BME280;67656;52.074;4.758;2023-07-31T01:32:17;100969.16;;;17.64;100.00
78373;BME280;67656;52.074;4.758;2023-07-31T01:37:18;100965.03;;;17.74;100.00
78373;BME280;67656;52.074;4.758;2023-07-31T01:42:18;100960.63;;;17.57;100.00
78373;BME280;67656;52.074;4.758;2023-07-31T01:47:19;100964.50;;;17.52;100.00
78373;BME280;67656;52.074;4.758;2023-07-31T01:52:19;100938.78;;;17.50;100.00
78373;BME280;67656;52.074;4.758;2023-07-31T01:57:19;100931.03;;;17.62;100.00
78373;BME280;67656;52.074;4.758;2023-07-31T02:02:20;100929.66;;;17.71;100.00
78373;BME280;67656;52.074;4.758;2023-07-31T02:07:20;100917.84;;;17.59;100.00
78373;BME280;67656;52.074;4.758;2023-07-31T02:12:21;100913.50;;;17.58;100.00
78373;BME280;67656;52.074;4.758;2023-07-31T02:17:21;100901.78;;;17.60;100.00
78373;BME280;67656;52.074;4.758;2023-07-31T02:22:21;100901.00;;;17.58;100.00
78373;BME280;67656;52.074;4.758;2023-07-31T02:27:22;100909.31;;;17.52;100.00
78373;BME280;67656;52.074;4.758;2023-07-31T02:32:22;100904.50;;;17.59;100.00
78373;BME280;67656;52.074;4.758;2023-07-31T02:37:23;100893.66;;;17.62;100.00
78373;BME280;67656;52.074;4.758;2023-07-31T02:42:23;100891.97;;;17.45;100.00
78373;BME280;67656;52.074;4.758;2023-07-31T02:47:24;100884.06;;;17.43;100.00
78373;BME280;67656;52.074;4.758;2023-07-31T02:52:24;100889.19;;;17.46;100.00
78373;BME280;67656;52.074;4.758;2023-07-31T02:57:25;100880.66;;;17.40;100.00
78373;BME280;67656;52.074;4.758;2023-07-31T03:02:25;100859.78;;;17.48;100.00
78373;BME280;67656;52.074;4.758;2023-07-31T03:07:25;100851.09;;;17.44;100.00
78373;BME280;67656;52.074;4.758;2023-07-31T03:12:26;100859.34;;;17.24;100.00
78373;BME280;67656;52.074;4.758;2023-07-31T03:17:26;100860.28;;;17.23;100.00
78373;BME280;67656;52.074;4.758;2023-07-31T03:22:27;100863.47;;;17.29;100.00
78373;BME280;67656;52.074;4.758;2023-07-31T03:27:27;100852.97;;;17.42;100.00
78373;BME280;67656;52.074;4.758;2023-07-31T03:32:27;100843.41;;;17.38;100.00
78373;BME280;67656;52.074;4.758;2023-07-31T03:37:28;100845.03;;;17.41;100.00
78373;BME280;67656;52.074;4.758;2023-07-31T03:42:28;100851.78;;;17.32;100.00
78373;BME280;67656;52.074;4.758;2023-07-31T03:47:28;100837.91;;;17.41;100.00
78373;BME280;67656;52.074;4.758;2023-07-31T03:52:29;100828.72;;;17.31;100.00
78373;BME280;67656;52.074;4.758;2023-07-31T03:57:29;100817.53;;;17.40;100.00
78373;BME280;67656;52.074;4.758;2023-07-31T04:02:30;100822.44;;;17.32;100.00
78373;BME280;67656;52.074;4.758;2023-07-31T04:07:31;100822.25;;;17.35;100.00
78373;BME280;67656;52.074;4.758;2023-07-31T04:12:31;100814.47;;;17.46;100.00
78373;BME280;67656;52.074;4.758;2023-07-31T04:17:32;100828.63;;;17.16;100.00
78373;BME280;67656;52.074;4.758;2023-07-31T04:22:32;100813.28;;;17.36;100.00
78373;BME280;67656;52.074;4.758;2023-07-31T04:27:32;100816.78;;;17.06;100.00
78373;BME280;67656;52.074;4.758;2023-07-31T04:32:33;100814.00;;;17.24;100.00
78373;BME280;67656;52.074;4.758;2023-07-31T04:37:33;100803.94;;;16.97;100.00
78373;BME280;67656;52.074;4.758;2023-07-31T04:42:34;100792.00;;;17.04;100.00
78373;BME280;67656;52.074;4.758;2023-07-31T04:47:34;100784.78;;;17.06;100.00
78373;BME280;67656;52.074;4.758;2023-07-31T04:52:34;100792.78;;;17.06;100.00
78373;BME280;67656;52.074;4.758;2023-07-31T04:57:35;100791.34;;;16.83;100.00
78373;BME280;67656;52.074;4.758;2023-07-31T05:02:35;100781.38;;;16.86;100.00
78373;BME280;67656;52.074;4.758;2023-07-31T05:07:35;100780.72;;;16.99;100.00
78373;BME280;67656;52.074;4.758;2023-07-31T05:12:36;100772.06;;;16.78;100.00
78373;BME280;67656;52.074;4.758;2023-07-31T05:17:36;100773.13;;;16.75;100.00
78373;BME280;67656;52.074;4.758;2023-07-31T05:22:37;100768.41;;;16.80;100.00
78373;BME280;67656;52.074;4.758;2023-07-31T05:27:37;100762.06;;;16.99;100.00
78373;BME280;67656;52.074;4.758;2023-07-31T05:32:37;100753.59;;;16.91;100.00
78373;BME280;67656;52.074;4.758;2023-07-31T05:37:38;100740.19;;;16.92;100.00
78373;BME280;67656;52.074;4.758;2023-07-31T05:42:38;100749.34;;;17.04;100.00
78373;BME280;67656;52.074;4.758;2023-07-31T05:47:39;100731.78;;;17.00;100.00
78373;BME280;67656;52.074;4.758;2023-07-31T05:52:39;100723.63;;;17.03;100.00
78373;BME280;67656;52.074;4.758;2023-07-31T05:57:40;100724.56;;;17.02;100.00
78373;BME280;67656;52.074;4.758;2023-07-31T06:02:40;100716.63;;;17.16;100.00
78373;BME280;67656;52.074;4.758;2023-07-31T06:07:41;100713.03;;;17.17;100.00
78373;BME280;67656;52.074;4.758;2023-07-31T06:12:41;100704.81;;;17.20;100.00
78373;BME280;67656;52.074;4.758;2023-07-31T06:17:42;100711.94;;;17.36;100.00
78373;BME280;67656;52.074;4.758;2023-07-31T06:22:42;100703.81;;;17.54;100.00
78373;BME280;67656;52.074;4.758;2023-07-31T06:27:42;100710.91;;;17.39;100.00
78373;BME280;67656;52.074;4.758;2023-07-31T06:32:43;100694.56;;;17.59;100.00
78373;BME280;67656;52.074;4.758;2023-07-31T06:37:43;100694.97;;;17.68;100.00
78373;BME280;67656;52.074;4.758;2023-07-31T06:42:44;100693.44;;;17.63;100.00
78373;BME280;67656;52.074;4.758;2023-07-31T06:47:44;100691.72;;;17.62;100.00
78373;BME280;67656;52.074;4.758;2023-07-31T06:52:45;100673.88;;;17.63;100.00
78373;BME280;67656;52.074;4.758;2023-07-31T06:57:46;100671.03;;;17.66;100.00
78373;BME280;67656;52.074;4.758;2023-07-31T07:02:47;100683.72;;;17.77;100.00
78373;BME280;67656;52.074;4.758;2023-07-31T07:07:49;100680.97;;;17.78;100.00
78373;BME280;67656;52.074;4.758;2023-07-31T07:12:49;100676.59;;;17.92;100.00
78373;BME280;67656;52.074;4.758;2023-07-31T07:17:50;100674.09;;;17.89;100.00
78373;BME280;67656;52.074;4.758;2023-07-31T07:22:50;100680.44;;;18.02;100.00
78373;BME280;67656;52.074;4.758;2023-07-31T07:27:51;100670.34;;;18.07;100.00
78373;BME280;67656;52.074;4.758;2023-07-31T07:32:52;100673.16;;;17.90;100.00
78373;BME280;67656;52.074;4.758;2023-07-31T07:37:52;100674.63;;;18.10;100.00
78373;BME280;67656;52.074;4.758;2023-07-31T07:42:53;100675.94;;;18.17;100.00
78373;BME280;67656;52.074;4.758;2023-07-31T07:47:53;100670.97;;;17.96;100.00
78373;BME280;67656;52.074;4.758;2023-07-31T07:52:54;100684.44;;;18.09;100.00
78373;BME280;67656;52.074;4.758;2023-07-31T07:57:54;100680.63;;;18.14;100.00
78373;BME280;67656;52.074;4.758;2023-07-31T08:02:55;100674.19;;;18.45;100.00
78373;BME280;67656;52.074;4.758;2023-07-31T08:07:55;100670.09;;;18.39;100.00
78373;BME280;67656;52.074;4.758;2023-07-31T08:12:55;100656.69;;;18.26;100.00
78373;BME280;67656;52.074;4.758;2023-07-31T08:17:56;100654.00;;;18.68;100.00
78373;BME280;67656;52.074;4.758;2023-07-31T08:22:56;100656.28;;;18.75;100.00
78373;BME280;67656;52.074;4.758;2023-07-31T08:27:57;100649.25;;;19.01;100.00
78373;BME280;67656;52.074;4.758;2023-07-31T08:32:57;100659.38;;;18.68;100.00
78373;BME280;67656;52.074;4.758;2023-07-31T08:37:57;100646.00;;;18.68;100.00
78373;BME280;67656;52.074;4.758;2023-07-31T08:42:58;100653.88;;;18.42;100.00
78373;BME280;67656;52.074;4.758;2023-07-31T08:47:59;100654.25;;;18.36;100.00
78373;BME280;67656;52.074;4.758;2023-07-31T08:53:00;100648.91;;;18.51;100.00
78373;BME280;67656;52.074;4.758;2023-07-31T08:58:01;100650.38;;;18.69;100.00
78373;BME280;67656;52.074;4.758;2023-07-31T09:03:08;100652.91;;;18.58;100.00
78373;BME280;67656;52.074;4.758;2023-07-31T09:08:10;100654.94;;;18.82;100.00
78373;BME280;67656;52.074;4.758;2023-07-31T09:13:11;100645.03;;;18.69;100.00
78373;BME280;67656;52.074;4.758;2023-07-31T09:18:11;100654.34;;;18.77;100.00
78373;BME280;67656;52.074;4.758;2023-07-31T09:23:13;100648.81;;;19.07;100.00
78373;BME280;67656;52.074;4.758;2023-07-31T09:28:14;100647.41;;;18.74;100.00
78373;BME280;67656;52.074;4.758;2023-07-31T09:33:14;100650.38;;;18.69;100.00
78373;BME280;67656;52.074;4.758;2023-07-31T09:38:16;100633.84;;;19.05;100.00
78373;BME280;67656;52.074;4.758;2023-07-31T09:43:18;100640.47;;;19.12;100.00
78373;BME280;67656;52.074;4.758;2023-07-31T09:48:19;100634.47;;;18.95;100.00
78373;BME280;67656;52.074;4.758;2023-07-31T09:53:28;100639.19;;;19.05;100.00
78373;BME280;67656;52.074;4.758;2023-07-31T09:58:29;100624.44;;;19.12;100.00
78373;BME280;67656;52.074;4.758;2023-07-31T10:03:31;100619.22;;;19.23;100.00
78373;BME280;67656;52.074;4.758;2023-07-31T10:08:34;100638.22;;;19.46;100.00
78373;BME280;67656;52.074;4.758;2023-07-31T10:13:36;100624.47;;;19.25;100.00
78373;BME280;67656;52.074;4.758;2023-07-31T10:18:38;100627.72;;;19.69;100.00
78373;BME280;67656;52.074;4.758;2023-07-31T10:23:40;100616.25;;;19.92;100.00
78373;BME280;67656;52.074;4.758;2023-07-31T10:28:43;100626.59;;;20.10;100.00
78373;BME280;67656;52.074;4.758;2023-07-31T10:33:44;100622.88;;;19.74;100.00
78373;BME280;67656;52.074;4.758;2023-07-31T10:38:45;100618.81;;;19.29;100.00
78373;BME280;67656;52.074;4.758;2023-07-31T10:43:46;100618.63;;;19.58;100.00
78373;BME280;67656;52.074;4.758;2023-07-31T10:48:58;100611.00;;;19.52;100.00
78373;BME280;67656;52.074;4.758;2023-07-31T10:54:12;100616.56;;;19.62;100.00
78373;BME280;67656;52.074;4.758;2023-07-31T10:59:13;100618.94;;;19.67;100.00
78373;BME280;67656;52.074;4.758;2023-07-31T11:04:13;100609.69;;;19.84;100.00
78373;BME280;67656;52.074;4.758;2023-07-31T11:09:14;100620.53;;;19.56;100.00
78373;BME280;67656;52.074;4.758;2023-07-31T11:14:14;100612.06;;;19.62;100.00
78373;BME280;67656;52.074;4.758;2023-07-31T11:19:15;100610.16;;;19.77;100.00
78373;BME280;67656;52.074;4.758;2023-07-31T11:24:21;100596.84;;;19.76;100.00
78373;BME280;67656;52.074;4.758;2023-07-31T11:29:27;100594.97;;;19.65;100.00
78373;BME280;67656;52.074;4.758;2023-07-31T11:34:27;100591.41;;;20.28;100.00
78373;BME280;67656;52.074;4.758;2023-07-31T11:39:28;100588.88;;;20.13;100.00
78373;BME280;67656;52.074;4.758;2023-07-31T11:44:37;100582.41;;;19.91;100.00
78373;BME280;67656;52.074;4.758;2023-07-31T11:49:39;100598.16;;;19.83;100.00
78373;BME280;67656;52.074;4.758;2023-07-31T11:54:40;100616.56;;;19.62;100.00
78373;BME280;67656;52.074;4.758;2023-07-31T11:59:41;100623.97;;;19.58;100.00
78373;BME280;67656;52.074;4.758;2023-07-31T12:04:42;100606.72;;;19.75;100.00
78373;BME280;67656;52.074;4.758;2023-07-31T12:09:55;100599.44;;;20.03;100.00
78373;BME280;67656;52.074;4.758;2023-07-31T12:14:55;100587.03;;;20.26;100.00
78373;BME280;67656;52.074;4.758;2023-07-31T12:19:56;100576.88;;;20.19;100.00
78373;BME280;67656;52.074;4.758;2023-07-31T12:24:56;100567.44;;;19.89;100.00
78373;BME280;67656;52.074;4.758;2023-07-31T12:29:57;100568.75;;;20.20;100.00
78373;BME280;67656;52.074;4.758;2023-07-31T12:34:59;100567.47;;;20.62;100.00
78373;BME280;67656;52.074;4.758;2023-07-31T12:40:00;100556.75;;;20.13;100.00
78373;BME280;67656;52.074;4.758;2023-07-31T12:45:00;100560.00;;;20.30;100.00
78373;BME280;67656;52.074;4.758;2023-07-31T12:50:01;100530.63;;;20.52;100.00
78373;BME280;67656;52.074;4.758;2023-07-31T12:55:01;100556.56;;;20.40;100.00
78373;BME280;67656;52.074;4.758;2023-07-31T13:00:02;100551.75;;;20.81;100.00
78373;BME280;67656;52.074;4.758;2023-07-31T13:05:03;100544.28;;;21.09;100.00
78373;BME280;67656;52.074;4.758;2023-07-31T13:10:04;100530.97;;;20.72;100.00
78373;BME280;67656;52.074;4.758;2023-07-31T13:15:05;100529.22;;;20.35;100.00
78373;BME280;67656;52.074;4.758;2023-07-31T13:20:06;100521.75;;;20.28;100.00
78373;BME280;67656;52.074;4.758;2023-07-31T13:25:07;100521.84;;;20.50;100.00
78373;BME280;67656;52.074;4.758;2023-07-31T13:30:08;100511.25;;;20.49;100.00
78373;BME280;67656;52.074;4.758;2023-07-31T13:35:08;100528.06;;;20.26;100.00
78373;BME280;67656;52.074;4.758;2023-07-31T13:40:09;100508.09;;;20.55;100.00
78373;BME280;67656;52.074;4.758;2023-07-31T13:45:10;100510.56;;;20.82;100.00
78373;BME280;67656;52.074;4.758;2023-07-31T13:50:10;100500.97;;;20.67;100.00
78373;BME280;67656;52.074;4.758;2023-07-31T13:55:11;100496.63;;;20.77;100.00
78373;BME280;67656;52.074;4.758;2023-07-31T14:00:12;100520.38;;;20.22;100.00
78373;BME280;67656;52.074;4.758;2023-07-31T14:05:12;100509.19;;;20.04;100.00
78373;BME280;67656;52.074;4.758;2023-07-31T14:10:13;100508.50;;;19.89;100.00
78373;BME280;67656;52.074;4.758;2023-07-31T14:15:13;100504.06;;;20.01;100.00
78373;BME280;67656;52.074;4.758;2023-07-31T14:20:14;100497.41;;;20.06;100.00
78373;BME280;67656;52.074;4.758;2023-07-31T14:25:14;100486.66;;;20.19;100.00
78373;BME280;67656;52.074;4.758;2023-07-31T14:30:14;100494.84;;;20.05;100.00
78373;BME280;67656;52.074;4.758;2023-07-31T14:35:15;100483.22;;;20.17;100.00
78373;BME280;67656;52.074;4.758;2023-07-31T14:40:15;100468.53;;;19.86;100.00
78373;BME280;67656;52.074;4.758;2023-07-31T14:45:16;100470.25;;;19.74;100.00
78373;BME280;67656;52.074;4.758;2023-07-31T14:50:16;100459.81;;;20.08;100.00
78373;BME280;67656;52.074;4.758;2023-07-31T14:55:18;100450.06;;;20.07;100.00
78373;BME280;67656;52.074;4.758;2023-07-31T15:00:18;100440.09;;;19.72;100.00
78373;BME280;67656;52.074;4.758;2023-07-31T15:05:18;100430.16;;;19.85;100.00
78373;BME280;67656;52.074;4.758;2023-07-31T15:10:19;100435.38;;;19.62;100.00
78373;BME280;67656;52.074;4.758;2023-07-31T15:15:19;100424.41;;;19.41;100.00
78373;BME280;67656;52.074;4.758;2023-07-31T15:20:20;100405.38;;;19.33;100.00
78373;BME280;67656;52.074;4.758;2023-07-31T15:25:20;100399.28;;;19.68;100.00
78373;BME280;67656;52.074;4.758;2023-07-31T15:30:20;100393.25;;;19.53;100.00
78373;BME280;67656;52.074;4.758;2023-07-31T15:35:21;100377.63;;;19.47;100.00
78373;BME280;67656;52.074;4.758;2023-07-31T15:40:22;100377.78;;;19.32;100.00
78373;BME280;67656;52.074;4.758;2023-07-31T15:45:22;100358.75;;;19.24;100.00
78373;BME280;67656;52.074;4.758;2023-07-31T15:50:22;100362.84;;;19.17;100.00
78373;BME280;67656;52.074;4.758;2023-07-31T15:55:23;100358.25;;;19.06;100.00
78373;BME280;67656;52.074;4.758;2023-07-31T16:00:23;100359.22;;;19.18;100.00
78373;BME280;67656;52.074;4.758;2023-07-31T16:05:24;100382.00;;;19.11;100.00
78373;BME280;67656;52.074;4.758;2023-07-31T16:10:24;100362.31;;;18.86;100.00
78373;BME280;67656;52.074;4.758;2023-07-31T16:15:25;100352.06;;;18.67;100.00
78373;BME280;67656;52.074;4.758;2023-07-31T16:20:26;100349.28;;;18.81;100.00
78373;BME280;67656;52.074;4.758;2023-07-31T16:25:26;100346.06;;;18.89;100.00
78373;BME280;67656;52.074;4.758;2023-07-31T16:30:27;100333.63;;;19.14;100.00
78373;BME280;67656;52.074;4.758;2023-07-31T16:35:27;100323.53;;;19.30;100.00
78373;BME280;67656;52.074;4.758;2023-07-31T16:40:27;100328.56;;;19.22;100.00
78373;BME280;67656;52.074;4.758;2023-07-31T16:45:28;100318.41;;;19.27;100.00
78373;BME280;67656;52.074;4.758;2023-07-31T16:50:28;100317.84;;;19.35;100.00
78373;BME280;67656;52.074;4.758;2023-07-31T16:55:29;100303.97;;;19.54;100.00
78373;BME280;67656;52.074;4.758;2023-07-31T17:00:29;100294.78;;;19.45;100.00
78373;BME280;67656;52.074;4.758;2023-07-31T17:05:30;100282.38;;;19.69;100.00
78373;BME280;67656;52.074;4.758;2023-07-31T17:10:30;100265.88;;;19.51;100.00
78373;BME280;67656;52.074;4.758;2023-07-31T17:15:31;100239.94;;;19.51;100.00
78373;BME280;67656;52.074;4.758;2023-07-31T17:20:31;100236.47;;;19.38;100.00
78373;BME280;67656;52.074;4.758;2023-07-31T17:25:32;100225.28;;;19.32;100.00
78373;BME280;67656;52.074;4.758;2023-07-31T17:30:32;100236.44;;;19.26;100.00
78373;BME280;67656;52.074;4.758;2023-07-31T17:35:33;100243.72;;;19.24;100.00
78373;BME280;67656;52.074;4.758;2023-07-31T17:40:33;100251.13;;;19.45;100.00
78373;BME280;67656;52.074;4.758;2023-07-31T17:45:34;100265.69;;;19.41;100.00
78373;BME280;67656;52.074;4.758;2023-07-31T17:50:34;100257.06;;;19.37;100.00
78373;BME280;67656;52.074;4.758;2023-07-31T17:55:35;100259.56;;;19.27;100.00
78373;BME280;67656;52.074;4.758;2023-07-31T18:00:35;100266.38;;;19.31;100.00
78373;BME280;67656;52.074;4.758;2023-07-31T18:05:36;100272.41;;;19.22;100.00
78373;BME280;67656;52.074;4.758;2023-07-31T18:10:43;100266.38;;;19.31;100.00
78373;BME280;67656;52.074;4.758;2023-07-31T18:15:44;100252.53;;;19.38;100.00
78373;BME280;67656;52.074;4.758;2023-07-31T18:20:45;100239.38;;;19.34;100.00
78373;BME280;67656;52.074;4.758;2023-07-31T18:25:47;100251.31;;;19.30;100.00
78373;BME280;67656;52.074;4.758;2023-07-31T18:30:47;100251.97;;;19.45;100.00
78373;BME280;67656;52.074;4.758;2023-07-31T18:35:48;100242.25;;;19.20;100.00
78373;BME280;67656;52.074;4.758;2023-07-31T18:40:48;100220.66;;;19.34;100.00
78373;BME280;67656;52.074;4.758;2023-07-31T18:45:49;100207.94;;;19.14;100.00
78373;BME280;67656;52.074;4.758;2023-07-31T18:50:50;100193.53;;;19.28;100.00
78373;BME280;67656;52.074;4.758;2023-07-31T18:55:51;100204.56;;;19.23;100.00
78373;BME280;67656;52.074;4.758;2023-07-31T19:00:52;100201.78;;;19.00;100.00
78373;BME280;67656;52.074;4.758;2023-07-31T19:06:00;100211.28;;;19.05;100.00
78373;BME280;67656;52.074;4.758;2023-07-31T19:11:01;100179.28;;;18.79;100.00
78373;BME280;67656;52.074;4.758;2023-07-31T19:16:01;100185.72;;;18.76;100.00
78373;BME280;67656;52.074;4.758;2023-07-31T19:21:02;100179.94;;;18.32;100.00
78373;BME280;67656;52.074;4.758;2023-07-31T19:26:02;100165.31;;;18.12;100.00
78373;BME280;67656;52.074;4.758;2023-07-31T19:31:03;100179.59;;;18.24;100.00
78373;BME280;67656;52.074;4.758;2023-07-31T19:36:04;100178.84;;;18.35;100.00
78373;BME280;67656;52.074;4.758;2023-07-31T19:41:04;100183.16;;;18.24;100.00
78373;BME280;67656;52.074;4.758;2023-07-31T19:46:04;100173.31;;;18.25;100.00
78373;BME280;67656;52.074;4.758;2023-07-31T19:51:05;100173.22;;;18.26;100.00
78373;BME280;67656;52.074;4.758;2023-07-31T19:56:06;100177.38;;;18.18;100.00
78373;BME280;67656;52.074;4.758;2023-07-31T20:01:06;100174.50;;;18.21;100.00
78373;BME280;67656;52.074;4.758;2023-07-31T20:06:07;100163.72;;;18.09;100.00
78373;BME280;67656;52.074;4.758;2023-07-31T20:11:07;100155.94;;;18.06;100.00
78373;BME280;67656;52.074;4.758;2023-07-31T20:16:08;100151.66;;;18.17;100.00
78373;BME280;67656;52.074;4.758;2023-07-31T20:21:11;100131.25;;;17.90;100.00
78373;BME280;67656;52.074;4.758;2023-07-31T20:26:12;100138.09;;;17.94;100.00
78373;BME280;67656;52.074;4.758;2023-07-31T20:31:12;100136.13;;;17.96;100.00
78373;BME280;67656;52.074;4.758;2023-07-31T20:36:16;100140.53;;;17.97;100.00
78373;BME280;67656;52.074;4.758;2023-07-31T20:41:16;100125.16;;;17.88;100.00
78373;BME280;67656;52.074;4.758;2023-07-31T20:46:17;100107.53;;;17.85;100.00
78373;BME280;67656;52.074;4.758;2023-07-31T20:51:17;100095.47;;;17.92;100.00
78373;BME280;67656;52.074;4.758;2023-07-31T20:56:19;100080.66;;;17.75;100.00
78373;BME280;67656;52.074;4.758;2023-07-31T21:01:19;100082.22;;;17.78;100.00
78373;BME280;67656;52.074;4.758;2023-07-31T21:06:20;100071.59;;;17.65;100.00
78373;BME280;67656;52.074;4.758;2023-07-31T21:11:20;100068.59;;;17.57;100.00
78373;BME280;67656;52.074;4.758;2023-07-31T21:16:21;100054.28;;;17.71;100.00
78373;BME280;67656;52.074;4.758;2023-07-31T21:21:22;100045.44;;;17.70;100.00
78373;BME280;67656;52.074;4.758;2023-07-31T21:26:22;100041.16;;;17.80;100.00
78373;BME280;67656;52.074;4.758;2023-07-31T21:31:22;100034.19;;;17.78;100.00
78373;BME280;67656;52.074;4.758;2023-07-31T21:36:23;100024.69;;;17.87;100.00
78373;BME280;67656;52.074;4.758;2023-07-31T21:41:23;100030.47;;;17.80;100.00
78373;BME280;67656;52.074;4.758;2023-07-31T21:46:24;100026.72;;;17.83;100.00
78373;BME280;67656;52.074;4.758;2023-07-31T21:51:25;100034.59;;;17.85;100.00
78373;BME280;67656;52.074;4.758;2023-07-31T21:56:25;100049.38;;;17.52;100.00
78373;BME280;67656;52.074;4.758;2023-07-31T22:01:26;100052.06;;;16.85;100.00
78373;BME280;67656;52.074;4.758;2023-07-31T22:06:26;100036.22;;;16.56;100.00
78373;BME280;67656;52.074;4.758;2023-07-31T22:11:27;100039.03;;;16.68;100.00
78373;BME280;67656;52.074;4.758;2023-07-31T22:16:27;100025.97;;;16.91;100.00
78373;BME280;67656;52.074;4.758;2023-07-31T22:21:27;100021.91;;;16.85;100.00
78373;BME280;67656;52.074;4.758;2023-07-31T22:26:28;100008.63;;;16.98;100.00
78373;BME280;67656;52.074;4.758;2023-07-31T22:31:28;100013.09;;;16.97;100.00
78373;BME280;67656;52.074;4.758;2023-07-31T22:36:29;100014.91;;;16.97;100.00
78373;BME280;67656;52.074;4.758;2023-07-31T22:41:30;99993.19;;;17.03;100.00
78373;BME280;67656;52.074;4.758;2023-07-31T22:46:30;99987.16;;;16.86;100.00
78373;BME280;67656;52.074;4.758;2023-07-31T22:51:31;100000.28;;;16.89;100.00
78373;BME280;67656;52.074;4.758;2023-07-31T22:56:31;99989.63;;;17.02;100.00
78373;BME280;67656;52.074;4.758;2023-07-31T23:01:32;100003.06;;;17.14;100.00
78373;BME280;67656;52.074;4.758;2023-07-31T23:06:32;99991.94;;;16.81;100.00
78373;BME280;67656;52.074;4.758;2023-07-31T23:11:33;99985.38;;;17.00;100.00
78373;BME280;67656;52.074;4.758;2023-07-31T23:16:33;99988.34;;;17.08;100.00
78373;BME280;67656;52.074;4.758;2023-07-31T23:21:33;99965.34;;;17.07;100.00
78373;BME280;67656;52.074;4.758;2023-07-31T23:26:34;99973.22;;;17.09;100.00
78373;BME280;67656;52.074;4.758;2023-07-31T23:31:34;99948.81;;;17.02;100.00
78373;BME280;67656;52.074;4.758;2023-07-31T23:36:35;99942.28;;;16.80;100.00
78373;BME280;67656;52.074;4.758;2023-07-31T23:41:35;99943.31;;;16.78;100.00
78373;BME280;67656;52.074;4.758;2023-07-31T23:46:35;99945.91;;;16.79;100.00
78373;BME280;67656;52.074;4.758;2023-07-31T23:51:36;99950.69;;;16.74;100.00
78373;BME280;67656;52.074;4.758;2023-07-31T23:56:38;99942.69;;;16.74;100.00
